createdAt,value
2017-11-30T00:00:28.963Z,70.00
2017-11-30T00:01:28.941Z,66.90
2017-11-30T00:02:28.922Z,71.50
2017-11-30T00:03:28.903Z,72.80
2017-11-30T00:04:28.882Z,73.50
2017-11-30T00:05:28.860Z,66.80
2017-11-30T00:06:28.843Z,70.50
2017-11-30T00:07:28.813Z,68.40
2017-11-30T00:08:28.790Z,70.80
2017-11-30T00:09:28.767Z,75.00
2017-11-30T00:10:28.748Z,73.90
2017-11-30T00:11:28.837Z,71.10
2017-11-30T00:12:28.702Z,71.10
2017-11-30T00:13:28.688Z,75.00
2017-11-30T00:14:28.663Z,70.80
2017-11-30T00:15:28.641Z,72.10
2017-11-30T00:16:28.625Z,67.80
2017-11-30T00:17:28.623Z,69.80
2017-11-30T00:18:28.577Z,73.00
2017-11-30T00:19:28.566Z,67.50
2017-11-30T00:20:28.534Z,71.00
2017-11-30T00:21:28.514Z,72.50
2017-11-30T00:22:28.490Z,71.50
2017-11-30T00:23:28.471Z,67.40
2017-11-30T00:24:28.448Z,71.10
2017-11-30T00:25:28.428Z,73.10
2017-11-30T00:26:28.406Z,71.70
2017-11-30T00:27:28.386Z,71.90
2017-11-30T00:28:28.390Z,72.60
2017-11-30T00:29:28.337Z,73.90
2017-11-30T00:30:28.320Z,74.50
2017-11-30T00:31:28.303Z,69.30
2017-11-30T00:32:28.279Z,70.50
2017-11-30T00:33:28.260Z,73.80
2017-11-30T00:34:28.235Z,75.90
2017-11-30T00:35:28.219Z,73.50
2017-11-30T00:36:28.190Z,77.20
2017-11-30T00:37:28.173Z,69.80
2017-11-30T00:38:28.147Z,73.40
2017-11-30T00:39:28.127Z,67.90
2017-11-30T00:40:28.105Z,74.30
2017-11-30T00:41:28.085Z,68.90
2017-11-30T00:42:28.061Z,73.30
2017-11-30T00:43:28.041Z,71.70
2017-11-30T00:44:28.016Z,70.90
2017-11-30T00:45:27.997Z,71.40
2017-11-30T00:46:27.971Z,73.00
2017-11-30T00:47:27.956Z,73.60
2017-11-30T00:48:27.938Z,70.70
2017-11-30T00:49:27.905Z,70.00
2017-11-30T00:50:27.888Z,69.30
2017-11-30T00:51:27.872Z,67.00
2017-11-30T00:52:27.846Z,68.10
2017-11-30T00:53:27.824Z,69.30
2017-11-30T00:54:27.804Z,68.60
2017-11-30T00:55:27.783Z,70.90
2017-11-30T00:56:27.759Z,71.80
2017-11-30T00:57:27.746Z,76.30
2017-11-30T00:58:27.730Z,75.50
2017-11-30T00:59:27.695Z,71.40
2017-11-30T01:00:27.673Z,74.00
2017-11-30T01:01:27.654Z,72.10
2017-11-30T01:02:27.632Z,72.50
2017-11-30T01:03:27.610Z,67.50
2017-11-30T01:04:27.587Z,73.00
2017-11-30T01:05:27.568Z,74.30
2017-11-30T01:06:27.544Z,71.30
2017-11-30T01:07:27.536Z,69.80
2017-11-30T01:08:27.504Z,69.80
2017-11-30T01:09:27.477Z,70.00
2017-11-30T01:10:27.460Z,70.30
2017-11-30T01:11:27.435Z,70.20
2017-11-30T01:12:27.413Z,70.60
2017-11-30T01:13:27.392Z,73.30
2017-11-30T01:14:27.371Z,73.20
2017-11-30T01:15:27.350Z,68.50
2017-11-30T01:16:27.328Z,73.40
2017-11-30T01:17:27.314Z,69.90
2017-11-30T01:18:27.285Z,69.70
2017-11-30T01:19:27.265Z,71.30
2017-11-30T01:20:27.243Z,71.80
2017-11-30T01:21:27.215Z,71.20
2017-11-30T01:22:27.198Z,70.20
2017-11-30T01:23:27.170Z,73.10
2017-11-30T01:24:27.155Z,75.50
2017-11-30T01:25:27.134Z,67.50
2017-11-30T01:26:27.113Z,70.20
2017-11-30T01:27:27.091Z,70.20
2017-11-30T01:28:27.070Z,67.90
2017-11-30T01:29:27.049Z,73.50
2017-11-30T01:30:27.032Z,72.10
2017-11-30T01:31:27.006Z,73.10
2017-11-30T01:32:26.983Z,69.70
2017-11-30T01:33:26.961Z,70.70
2017-11-30T01:34:26.939Z,74.30
2017-11-30T01:35:26.921Z,73.50
2017-11-30T01:36:26.896Z,70.30
2017-11-30T01:37:26.874Z,72.60
2017-11-30T01:38:26.854Z,71.10
2017-11-30T01:39:26.834Z,71.20
2017-11-30T01:40:26.810Z,67.90
2017-11-30T01:41:26.788Z,69.70
2017-11-30T01:42:26.767Z,75.60
2017-11-30T01:43:26.747Z,68.40
2017-11-30T01:44:26.722Z,70.20
2017-11-30T01:45:26.703Z,67.60
2017-11-30T01:46:26.681Z,72.80
2017-11-30T01:47:26.661Z,70.00
2017-11-30T01:48:26.638Z,69.40
2017-11-30T01:49:26.617Z,69.90
2017-11-30T01:50:26.595Z,71.80
2017-11-30T01:51:26.578Z,67.10
2017-11-30T01:52:26.554Z,70.70
2017-11-30T01:53:26.528Z,72.50
2017-11-30T01:54:26.509Z,68.90
2017-11-30T01:55:26.488Z,70.90
2017-11-30T01:56:26.462Z,72.10
2017-11-30T01:57:26.443Z,70.10
2017-11-30T01:58:26.423Z,67.90
2017-11-30T01:59:26.413Z,69.10
2017-11-30T02:00:26.379Z,70.20
2017-11-30T02:01:26.358Z,69.70
2017-11-30T02:02:26.334Z,70.00
2017-11-30T02:03:26.315Z,69.80
2017-11-30T02:04:26.293Z,69.40
2017-11-30T02:05:26.272Z,69.20
2017-11-30T02:06:26.251Z,73.30
2017-11-30T02:07:26.226Z,68.20
2017-11-30T02:08:26.207Z,71.90
2017-11-30T02:09:26.185Z,73.10
2017-11-30T02:10:26.165Z,71.60
2017-11-30T02:11:26.143Z,67.80
2017-11-30T02:12:26.120Z,68.50
2017-11-30T02:13:26.099Z,70.30
2017-11-30T02:14:26.078Z,68.00
2017-11-30T02:15:26.069Z,72.70
2017-11-30T02:16:26.036Z,72.60
2017-11-30T02:17:26.012Z,71.90
2017-11-30T02:18:25.992Z,72.90
2017-11-30T02:19:25.972Z,69.80
2017-11-30T02:20:25.949Z,70.30
2017-11-30T02:21:25.935Z,73.50
2017-11-30T02:22:25.906Z,74.00
2017-11-30T02:23:25.885Z,72.70
2017-11-30T02:24:25.861Z,70.60
2017-11-30T02:25:25.840Z,77.40
2017-11-30T02:26:25.821Z,72.40
2017-11-30T02:27:25.799Z,69.90
2017-11-30T02:28:25.774Z,71.40
2017-11-30T02:29:25.762Z,70.00
2017-11-30T02:30:25.735Z,73.50
2017-11-30T02:31:25.713Z,73.60
2017-11-30T02:32:25.705Z,74.50
2017-11-30T02:33:25.669Z,70.80
2017-11-30T02:34:25.650Z,73.20
2017-11-30T02:35:25.627Z,70.40
2017-11-30T02:36:25.607Z,71.70
2017-11-30T02:37:25.584Z,72.40
2017-11-30T02:38:25.561Z,76.20
2017-11-30T02:39:25.540Z,72.00
2017-11-30T02:40:25.518Z,71.40
2017-11-30T02:41:25.499Z,69.30
2017-11-30T02:42:25.483Z,72.10
2017-11-30T02:43:25.452Z,75.00
2017-11-30T02:44:25.433Z,76.00
2017-11-30T02:45:25.417Z,68.60
2017-11-30T02:46:25.389Z,71.30
2017-11-30T02:47:25.370Z,69.80
2017-11-30T02:48:25.351Z,70.20
2017-11-30T02:49:25.325Z,71.10
2017-11-30T02:50:25.304Z,69.70
2017-11-30T02:51:25.286Z,71.40
2017-11-30T02:52:25.254Z,71.60
2017-11-30T02:53:25.238Z,75.10
2017-11-30T02:54:25.216Z,69.60
2017-11-30T02:55:25.203Z,66.70
2017-11-30T02:56:25.175Z,69.80
2017-11-30T02:57:25.147Z,73.80
2017-11-30T02:58:25.131Z,72.60
2017-11-30T02:59:25.110Z,71.20
2017-11-30T03:00:25.088Z,70.90
2017-11-30T03:01:25.064Z,69.40
2017-11-30T03:02:25.045Z,70.00
2017-11-30T03:03:25.027Z,71.40
2017-11-30T03:04:25.005Z,72.50
2017-11-30T03:05:24.979Z,75.30
2017-11-30T03:06:24.963Z,71.70
2017-11-30T03:07:24.940Z,77.20
2017-11-30T03:08:24.917Z,73.10
2017-11-30T03:09:24.895Z,74.80
2017-11-30T03:10:24.873Z,73.30
2017-11-30T03:11:24.852Z,74.50
2017-11-30T03:12:24.831Z,73.10
2017-11-30T03:13:24.809Z,78.70
2017-11-30T03:14:24.787Z,79.00
2017-11-30T03:15:24.767Z,78.20
2017-11-30T03:16:24.746Z,72.70
2017-11-30T03:17:24.723Z,73.20
2017-11-30T03:18:24.693Z,75.10
2017-11-30T03:19:24.678Z,79.00
2017-11-30T03:20:24.659Z,73.70
2017-11-30T03:21:24.642Z,73.60
2017-11-30T03:22:24.614Z,73.60
2017-11-30T03:23:24.593Z,78.80
2017-11-30T03:24:24.574Z,81.60
2017-11-30T03:25:24.553Z,80.50
2017-11-30T03:26:24.530Z,80.80
2017-11-30T03:27:24.508Z,79.10
2017-11-30T03:28:24.490Z,73.50
2017-11-30T03:29:24.467Z,76.90
2017-11-30T03:30:24.447Z,81.50
2017-11-30T03:31:24.424Z,77.50
2017-11-30T03:32:24.401Z,78.80
2017-11-30T03:33:24.383Z,85.30
2017-11-30T03:34:24.362Z,85.20
2017-11-30T03:35:24.336Z,89.10
2017-11-30T03:36:24.315Z,86.90
2017-11-30T03:37:24.293Z,97.40
2017-11-30T03:38:24.272Z,88.00
2017-11-30T03:39:24.251Z,90.60
2017-11-30T03:40:24.227Z,92.60
2017-11-30T03:41:24.206Z,88.80
2017-11-30T03:42:24.186Z,93.50
2017-11-30T03:43:24.164Z,99.20
2017-11-30T03:44:24.153Z,102.90
2017-11-30T03:45:24.128Z,107.30
2017-11-30T03:46:24.099Z,103.50
2017-11-30T03:47:24.078Z,109.40
2017-11-30T03:48:24.056Z,105.00
2017-11-30T03:49:24.045Z,104.60
2017-11-30T03:50:24.018Z,108.70
2017-11-30T03:51:23.992Z,107.70
2017-11-30T03:52:23.980Z,113.70
2017-11-30T03:53:23.957Z,120.80
2017-11-30T03:54:23.927Z,120.10
2017-11-30T03:55:23.921Z,117.40
2017-11-30T03:56:23.884Z,115.80
2017-11-30T03:57:23.863Z,121.10
2017-11-30T03:58:23.839Z,118.40
2017-11-30T03:59:23.820Z,117.00
2017-11-30T04:00:23.801Z,118.20
2017-11-30T04:01:23.774Z,109.30
2017-11-30T04:02:23.753Z,116.60
2017-11-30T04:03:23.732Z,123.40
2017-11-30T04:04:23.709Z,119.10
2017-11-30T04:05:23.697Z,122.40
2017-11-30T04:06:23.670Z,115.20
2017-11-30T04:07:23.646Z,124.30
2017-11-30T04:08:23.624Z,119.90
2017-11-30T04:09:23.603Z,116.50
2017-11-30T04:10:23.583Z,127.30
2017-11-30T04:11:23.560Z,123.00
2017-11-30T04:12:23.547Z,130.30
2017-11-30T04:13:23.517Z,122.00
2017-11-30T04:14:23.495Z,118.60
2017-11-30T04:15:23.469Z,118.80
2017-11-30T04:16:23.448Z,121.40
2017-11-30T04:17:23.426Z,118.90
2017-11-30T04:18:23.406Z,119.40
2017-11-30T04:19:23.383Z,119.30
2017-11-30T04:20:23.363Z,116.50
2017-11-30T04:21:23.339Z,117.30
2017-11-30T04:22:23.322Z,104.60
2017-11-30T04:23:23.313Z,121.10
2017-11-30T04:24:23.274Z,116.60
2017-11-30T04:25:23.261Z,119.80
2017-11-30T04:26:23.228Z,123.00
2017-11-30T04:27:23.212Z,119.60
2017-11-30T04:28:23.184Z,112.70
2017-11-30T04:29:23.163Z,120.00
2017-11-30T04:30:23.145Z,110.60
2017-11-30T04:31:23.120Z,111.70
2017-11-30T04:32:23.099Z,107.20
2017-11-30T04:33:23.133Z,103.90
2017-11-30T04:34:23.055Z,107.40
2017-11-30T04:35:23.034Z,96.70
2017-11-30T04:36:23.010Z,109.90
2017-11-30T04:37:22.988Z,98.30
2017-11-30T04:38:22.972Z,106.20
2017-11-30T04:39:22.945Z,102.60
2017-11-30T04:40:22.920Z,100.70
2017-11-30T04:41:22.897Z,99.80
2017-11-30T04:42:22.879Z,91.20
2017-11-30T04:43:22.856Z,91.80
2017-11-30T04:44:22.835Z,100.40
2017-11-30T04:45:22.810Z,99.70
2017-11-30T04:46:22.790Z,97.80
2017-11-30T04:47:22.758Z,92.30
2017-11-30T04:48:22.745Z,92.10
2017-11-30T04:49:22.719Z,88.80
2017-11-30T04:50:22.695Z,85.30
2017-11-30T04:51:22.679Z,87.20
2017-11-30T04:52:22.661Z,87.90
2017-11-30T04:53:22.661Z,88.20
2017-11-30T04:54:22.614Z,92.60
2017-11-30T04:55:22.592Z,90.60
2017-11-30T04:56:22.564Z,95.00
2017-11-30T04:57:22.540Z,94.50
2017-11-30T04:58:22.513Z,91.60
2017-11-30T04:59:22.495Z,90.30
2017-11-30T05:00:22.491Z,88.80
2017-11-30T05:01:22.453Z,96.80
2017-11-30T05:02:22.433Z,97.10
2017-11-30T05:03:22.442Z,101.00
2017-11-30T05:04:22.421Z,95.40
2017-11-30T05:05:22.363Z,95.40
2017-11-30T05:06:22.365Z,94.80
2017-11-30T05:07:22.320Z,92.20
2017-11-30T05:08:22.301Z,94.30
2017-11-30T05:09:22.280Z,100.80
2017-11-30T05:10:22.294Z,103.80
2017-11-30T05:11:22.258Z,105.30
2017-11-30T05:12:22.214Z,103.20
2017-11-30T05:13:22.189Z,106.20
2017-11-30T05:14:22.162Z,102.80
2017-11-30T05:15:22.150Z,110.40
2017-11-30T05:16:22.129Z,106.20
2017-11-30T05:17:22.119Z,113.20
2017-11-30T05:18:22.093Z,115.40
2017-11-30T05:19:22.057Z,107.40
2017-11-30T05:20:22.044Z,111.00
2017-11-30T05:21:22.013Z,110.40
2017-11-30T05:22:21.989Z,111.00
2017-11-30T05:23:21.981Z,111.40
2017-11-30T05:24:21.954Z,107.10
2017-11-30T05:25:21.929Z,111.20
2017-11-30T05:26:21.914Z,113.00
2017-11-30T05:27:21.930Z,107.70
2017-11-30T05:28:21.859Z,102.60
2017-11-30T05:29:21.860Z,104.50
2017-11-30T05:30:21.804Z,111.50
2017-11-30T05:31:21.798Z,114.00
2017-11-30T05:32:21.766Z,118.20
2017-11-30T05:33:21.773Z,117.40
2017-11-30T05:34:21.727Z,113.10
2017-11-30T05:35:21.701Z,124.00
2017-11-30T05:36:21.685Z,124.10
2017-11-30T05:37:21.654Z,122.70
2017-11-30T05:38:21.629Z,112.20
2017-11-30T05:39:21.610Z,120.80
2017-11-30T05:40:21.597Z,120.90
2017-11-30T05:41:21.569Z,118.00
2017-11-30T05:42:21.555Z,125.00
2017-11-30T05:43:21.540Z,123.10
2017-11-30T05:44:21.517Z,124.90
2017-11-30T05:45:21.485Z,124.80
2017-11-30T05:46:21.457Z,129.70
2017-11-30T05:47:21.427Z,134.50
2017-11-30T05:48:21.410Z,134.90
2017-11-30T05:49:21.381Z,128.60
2017-11-30T05:50:21.378Z,127.60
2017-11-30T05:51:21.367Z,133.90
2017-11-30T05:52:21.329Z,131.30
2017-11-30T05:53:21.374Z,128.60
2017-11-30T05:54:21.275Z,129.80
2017-11-30T05:55:21.255Z,126.50
2017-11-30T05:56:21.238Z,134.60
2017-11-30T05:57:21.230Z,135.00
2017-11-30T05:58:21.197Z,127.70
2017-11-30T05:59:21.164Z,141.60
2017-11-30T06:00:21.203Z,142.30
2017-11-30T06:01:21.115Z,141.10
2017-11-30T06:02:21.105Z,133.40
2017-11-30T06:03:21.087Z,134.80
2017-11-30T06:04:21.051Z,131.50
2017-11-30T06:05:21.043Z,136.80
2017-11-30T06:06:21.009Z,134.80
2017-11-30T06:07:20.987Z,132.00
2017-11-30T06:08:20.980Z,141.00
2017-11-30T06:09:20.959Z,144.30
2017-11-30T06:10:20.925Z,146.10
2017-11-30T06:11:20.911Z,152.20
2017-11-30T06:12:20.876Z,154.80
2017-11-30T06:13:20.880Z,149.30
2017-11-30T06:14:20.855Z,174.70
2017-11-30T06:15:20.807Z,154.50
2017-11-30T06:16:20.795Z,157.70
2017-11-30T06:17:20.796Z,159.60
2017-11-30T06:18:20.768Z,148.30
2017-11-30T06:19:20.733Z,141.10
2017-11-30T06:20:20.696Z,151.10
2017-11-30T06:21:20.677Z,145.80
2017-11-30T06:22:20.669Z,141.10
2017-11-30T06:23:20.639Z,143.10
2017-11-30T06:24:20.646Z,146.60
2017-11-30T06:25:20.602Z,140.00
2017-11-30T06:26:20.570Z,150.90
2017-11-30T06:27:20.550Z,157.90
2017-11-30T06:28:20.546Z,145.10
2017-11-30T06:29:20.499Z,154.40
2017-11-30T06:30:20.472Z,151.50
2017-11-30T06:31:20.450Z,151.90
2017-11-30T06:32:20.428Z,164.50
2017-11-30T06:33:20.407Z,162.80
2017-11-30T06:34:20.396Z,157.50
2017-11-30T06:35:20.416Z,149.40
2017-11-30T06:36:20.334Z,145.20
2017-11-30T06:37:20.318Z,148.90
2017-11-30T06:38:20.337Z,165.70
2017-11-30T06:39:20.271Z,184.30
2017-11-30T06:40:20.271Z,168.90
2017-11-30T06:41:20.240Z,173.60
2017-11-30T06:42:20.213Z,168.50
2017-11-30T06:43:20.201Z,165.90
2017-11-30T06:44:20.177Z,167.70
2017-11-30T06:45:20.158Z,176.00
2017-11-30T06:46:20.125Z,187.00
2017-11-30T06:47:20.103Z,183.90
2017-11-30T06:48:20.108Z,192.70
2017-11-30T06:49:20.080Z,192.60
2017-11-30T06:50:20.029Z,186.40
2017-11-30T06:51:20.017Z,173.50
2017-11-30T06:52:19.983Z,170.40
2017-11-30T06:53:20.021Z,169.70
2017-11-30T06:54:19.999Z,180.10
2017-11-30T06:55:19.907Z,185.40
2017-11-30T06:56:19.892Z,172.40
2017-11-30T06:57:19.868Z,176.20
2017-11-30T06:58:19.855Z,211.10
2017-11-30T06:59:19.844Z,189.50
2017-11-30T07:00:19.830Z,184.40
2017-11-30T07:01:19.784Z,170.90
2017-11-30T07:02:19.757Z,171.40
2017-11-30T07:03:19.756Z,174.70
2017-11-30T07:04:19.711Z,161.80
2017-11-30T07:05:19.693Z,181.90
2017-11-30T07:06:19.697Z,175.20
2017-11-30T07:07:19.643Z,178.50
2017-11-30T07:08:19.638Z,183.20
2017-11-30T07:09:19.648Z,178.80
2017-11-30T07:10:19.581Z,161.30
2017-11-30T07:11:19.574Z,191.00
2017-11-30T07:12:19.535Z,185.30
2017-11-30T07:13:19.530Z,185.60
2017-11-30T07:14:19.492Z,208.20
2017-11-30T07:15:19.494Z,179.20
2017-11-30T07:16:19.455Z,175.00
2017-11-30T07:17:19.423Z,185.40
2017-11-30T07:18:19.410Z,185.80
2017-11-30T07:19:19.386Z,183.20
2017-11-30T07:20:19.358Z,178.80
2017-11-30T07:21:19.338Z,199.20
2017-11-30T07:22:19.324Z,192.20
2017-11-30T07:23:19.293Z,198.60
2017-11-30T07:24:19.274Z,214.80
2017-11-30T07:25:19.249Z,210.10
2017-11-30T07:26:19.224Z,205.20
2017-11-30T07:27:19.246Z,190.60
2017-11-30T07:28:19.199Z,197.80
2017-11-30T07:29:19.171Z,213.70
2017-11-30T07:30:19.170Z,222.20
2017-11-30T07:31:19.132Z,218.40
2017-11-30T07:32:19.102Z,219.20
2017-11-30T07:33:19.073Z,224.60
2017-11-30T07:34:19.076Z,253.90
2017-11-30T07:35:19.041Z,235.80
2017-11-30T07:36:19.007Z,233.10
2017-11-30T07:37:19.012Z,224.20
2017-11-30T07:38:18.976Z,241.00
2017-11-30T07:39:18.944Z,236.00
2017-11-30T07:40:18.915Z,233.50
2017-11-30T07:41:18.894Z,232.30
2017-11-30T07:42:18.887Z,247.20
2017-11-30T07:43:18.861Z,254.70
2017-11-30T07:44:18.833Z,249.10
2017-11-30T07:45:18.839Z,261.40
2017-11-30T07:46:18.792Z,231.00
2017-11-30T07:47:18.764Z,269.60
2017-11-30T07:48:18.744Z,236.00
2017-11-30T07:49:18.753Z,242.30
2017-11-30T07:50:18.698Z,238.90
2017-11-30T07:51:18.681Z,215.00
2017-11-30T07:52:18.656Z,258.90
2017-11-30T07:53:18.634Z,244.50
2017-11-30T07:54:18.612Z,257.10
2017-11-30T07:55:18.606Z,240.70
2017-11-30T07:56:18.580Z,229.90
2017-11-30T07:57:18.556Z,251.70
2017-11-30T07:58:18.533Z,257.20
2017-11-30T07:59:18.505Z,252.60
2017-11-30T08:00:18.478Z,240.40
2017-11-30T08:01:18.448Z,250.00
2017-11-30T08:02:18.467Z,276.30
2017-11-30T08:03:18.458Z,234.10
2017-11-30T08:04:18.428Z,255.30
2017-11-30T08:05:18.405Z,248.80
2017-11-30T08:06:18.370Z,262.10
2017-11-30T08:07:18.323Z,270.90
2017-11-30T08:08:18.298Z,258.40
2017-11-30T08:09:18.288Z,269.40
2017-11-30T08:10:18.270Z,261.30
2017-11-30T08:11:18.268Z,260.80
2017-11-30T08:12:18.215Z,273.80
2017-11-30T08:13:18.202Z,254.60
2017-11-30T08:14:18.202Z,261.90
2017-11-30T08:15:18.157Z,267.80
2017-11-30T08:16:18.132Z,280.80
2017-11-30T08:17:18.123Z,256.10
2017-11-30T08:18:18.084Z,241.50
2017-11-30T08:19:18.063Z,259.40
2017-11-30T08:20:18.070Z,270.60
2017-11-30T08:21:18.033Z,253.80
2017-11-30T08:22:17.996Z,231.50
2017-11-30T08:23:17.976Z,273.10
2017-11-30T08:24:17.956Z,233.60
2017-11-30T08:25:17.954Z,237.70
2017-11-30T08:26:17.916Z,269.00
2017-11-30T08:27:17.901Z,261.30
2017-11-30T08:28:17.863Z,249.50
2017-11-30T08:29:17.859Z,250.30
2017-11-30T08:30:17.831Z,250.00
2017-11-30T08:31:17.799Z,244.20
2017-11-30T08:32:17.812Z,258.50
2017-11-30T08:33:17.763Z,249.10
2017-11-30T08:34:17.736Z,235.70
2017-11-30T08:35:17.748Z,242.50
2017-11-30T08:36:17.703Z,211.90
2017-11-30T08:37:17.717Z,246.30
2017-11-30T08:38:17.688Z,207.50
2017-11-30T08:39:17.691Z,228.70
2017-11-30T08:40:17.639Z,219.60
2017-11-30T08:41:17.579Z,210.30
2017-11-30T08:42:17.580Z,205.10
2017-11-30T08:43:17.548Z,190.60
2017-11-30T08:44:17.517Z,207.40
2017-11-30T08:45:17.523Z,203.80
2017-11-30T08:47:17.447Z,187.10
2017-11-30T08:48:17.422Z,200.60
2017-11-30T08:49:17.409Z,215.40
2017-11-30T08:50:17.428Z,206.20
2017-11-30T08:51:17.358Z,201.40
2017-11-30T08:52:17.374Z,186.10
2017-11-30T08:53:17.355Z,191.40
2017-11-30T08:54:17.331Z,199.30
2017-11-30T08:55:17.296Z,172.90
2017-11-30T08:56:17.265Z,182.70
2017-11-30T08:57:17.231Z,179.80
2017-11-30T08:58:17.264Z,175.20
2017-11-30T08:59:17.202Z,167.10
2017-11-30T09:00:17.180Z,172.30
2017-11-30T09:01:17.153Z,163.50
2017-11-30T09:02:17.142Z,162.40
2017-11-30T09:03:17.113Z,160.60
2017-11-30T09:04:17.078Z,151.40
2017-11-30T09:05:17.069Z,155.10
2017-11-30T09:06:17.055Z,152.50
2017-11-30T09:07:17.055Z,152.90
2017-11-30T09:08:16.993Z,150.40
2017-11-30T09:09:17.032Z,149.80
2017-11-30T09:10:16.966Z,145.60
2017-11-30T09:11:17.001Z,137.70
2017-11-30T09:12:16.929Z,146.20
2017-11-30T09:13:16.893Z,132.20
2017-11-30T09:14:16.860Z,154.40
2017-11-30T09:15:16.861Z,159.60
2017-11-30T09:16:16.844Z,152.80
2017-11-30T09:17:16.815Z,147.50
2017-11-30T09:18:16.798Z,150.30
2017-11-30T09:19:16.774Z,133.90
2017-11-30T09:20:16.754Z,129.30
2017-11-30T09:21:16.719Z,140.10
2017-11-30T09:22:16.712Z,146.80
2017-11-30T09:23:16.675Z,139.40
2017-11-30T09:24:16.661Z,140.80
2017-11-30T09:25:16.646Z,130.80
2017-11-30T09:26:16.623Z,130.60
2017-11-30T09:27:16.599Z,140.30
2017-11-30T09:28:16.583Z,127.30
2017-11-30T09:29:16.544Z,133.60
2017-11-30T09:30:16.553Z,122.10
2017-11-30T09:31:16.511Z,140.40
2017-11-30T09:32:16.485Z,131.60
2017-11-30T09:33:16.477Z,137.80
2017-11-30T09:34:16.451Z,139.30
2017-11-30T09:35:16.423Z,126.00
2017-11-30T09:36:16.413Z,127.20
2017-11-30T09:37:16.403Z,131.10
2017-11-30T09:38:16.445Z,116.40
2017-11-30T09:39:16.388Z,124.40
2017-11-30T09:40:16.324Z,113.90
2017-11-30T09:41:16.308Z,104.10
2017-11-30T09:42:16.280Z,116.80
2017-11-30T09:43:16.263Z,115.60
2017-11-30T09:44:16.245Z,95.90
2017-11-30T09:45:16.212Z,106.40
2017-11-30T09:46:16.215Z,109.70
2017-11-30T09:47:16.222Z,113.20
2017-11-30T09:48:16.226Z,110.20
2017-11-30T09:49:16.138Z,101.10
2017-11-30T09:50:16.121Z,96.60
2017-11-30T09:51:16.107Z,103.30
2017-11-30T09:52:16.075Z,96.10
2017-11-30T09:53:16.040Z,103.50
2017-11-30T09:54:16.051Z,102.30
2017-11-30T09:55:16.039Z,100.30
2017-11-30T09:56:15.989Z,101.60
2017-11-30T09:57:15.964Z,115.70
2017-11-30T09:58:15.946Z,101.40
2017-11-30T09:59:15.934Z,91.10
2017-11-30T10:00:15.913Z,101.70
2017-11-30T10:01:15.871Z,99.60
2017-11-30T10:02:15.880Z,95.60
2017-11-30T10:03:15.833Z,96.60
2017-11-30T10:04:15.815Z,102.00
2017-11-30T10:05:15.797Z,89.00
2017-11-30T10:06:15.777Z,88.70
2017-11-30T10:07:15.744Z,90.50
2017-11-30T10:08:15.745Z,82.30
2017-11-30T10:09:15.722Z,90.30
2017-11-30T10:10:15.725Z,88.70
2017-11-30T10:11:15.663Z,88.30
2017-11-30T10:12:15.651Z,86.50
2017-11-30T10:13:15.644Z,90.30
2017-11-30T10:14:15.611Z,88.30
2017-11-30T10:15:15.577Z,98.30
2017-11-30T10:16:15.558Z,88.90
2017-11-30T10:17:15.556Z,84.50
2017-11-30T10:18:15.528Z,98.30
2017-11-30T10:19:15.501Z,101.20
2017-11-30T10:20:15.496Z,105.90
2017-11-30T10:21:16.194Z,90.60
2017-11-30T10:22:15.512Z,99.50
2017-11-30T10:23:15.466Z,101.40
2017-11-30T10:24:15.413Z,98.70
2017-11-30T10:25:15.393Z,101.10
2017-11-30T10:26:15.373Z,100.00
2017-11-30T10:27:15.330Z,102.30
2017-11-30T10:28:15.310Z,114.50
2017-11-30T10:29:15.310Z,104.80
2017-11-30T10:30:15.271Z,104.90
2017-11-30T10:31:15.284Z,106.10
2017-11-30T10:32:15.258Z,119.50
2017-11-30T10:33:15.202Z,106.70
2017-11-30T10:34:15.206Z,118.30
2017-11-30T10:35:15.168Z,111.80
2017-11-30T10:36:15.170Z,105.80
2017-11-30T10:37:15.167Z,117.30
2017-11-30T10:38:15.170Z,116.00
2017-11-30T10:39:15.125Z,109.40
2017-11-30T10:40:15.083Z,110.50
2017-11-30T10:41:15.153Z,102.50
2017-11-30T10:42:15.113Z,115.50
2017-11-30T10:43:15.047Z,102.60
2017-11-30T10:44:15.012Z,95.40
2017-11-30T10:45:15.016Z,99.50
2017-11-30T10:46:14.974Z,100.60
2017-11-30T10:47:14.960Z,105.50
2017-11-30T10:48:14.978Z,100.10
2017-11-30T10:49:14.897Z,100.50
2017-11-30T10:50:14.887Z,102.40
2017-11-30T10:51:14.884Z,95.60
2017-11-30T10:52:14.899Z,99.90
2017-11-30T10:53:14.910Z,96.40
2017-11-30T10:54:15.700Z,104.60
2017-11-30T10:55:14.772Z,93.40
2017-11-30T10:56:14.793Z,98.80
2017-11-30T10:57:14.712Z,91.90
2017-11-30T10:58:14.700Z,90.70
2017-11-30T10:59:14.682Z,95.70
2017-11-30T11:00:14.668Z,83.70
2017-11-30T11:01:14.659Z,84.30
2017-11-30T11:02:14.684Z,92.20
2017-11-30T11:03:14.699Z,88.60
2017-11-30T11:04:14.719Z,85.60
2017-11-30T11:05:14.573Z,80.60
2017-11-30T11:06:14.533Z,76.40
2017-11-30T11:07:14.537Z,75.40
2017-11-30T11:08:14.517Z,73.10
2017-11-30T11:09:14.471Z,69.50
2017-11-30T11:10:14.468Z,71.20
2017-11-30T11:11:14.433Z,72.50
2017-11-30T11:12:14.424Z,63.30
2017-11-30T11:13:14.434Z,57.80
2017-11-30T11:14:14.407Z,58.10
2017-11-30T11:15:14.381Z,53.10
2017-11-30T11:16:14.379Z,59.50
2017-11-30T11:17:14.320Z,64.00
2017-11-30T11:18:14.360Z,58.80
2017-11-30T11:19:14.342Z,54.70
2017-11-30T11:20:14.267Z,56.60
2017-11-30T11:21:14.233Z,60.10
2017-11-30T11:22:14.283Z,62.90
2017-11-30T11:23:14.171Z,63.80
2017-11-30T11:24:14.180Z,66.30
2017-11-30T11:25:14.171Z,62.70
2017-11-30T11:26:14.111Z,56.90
2017-11-30T11:27:14.129Z,56.50
2017-11-30T11:28:14.100Z,60.40
2017-11-30T11:29:14.063Z,56.10
2017-11-30T11:30:14.570Z,70.20
2017-11-30T11:31:13.998Z,53.00
2017-11-30T11:32:13.976Z,54.90
2017-11-30T11:33:13.984Z,53.30
2017-11-30T11:34:13.948Z,48.30
2017-11-30T11:35:13.944Z,53.40
2017-11-30T11:36:13.929Z,59.10
2017-11-30T11:37:13.879Z,54.30
2017-11-30T11:38:13.854Z,46.50
2017-11-30T11:39:13.836Z,45.30
2017-11-30T11:40:13.833Z,42.50
2017-11-30T11:41:13.798Z,52.60
2017-11-30T11:42:13.798Z,41.80
2017-11-30T11:43:13.759Z,39.50
2017-11-30T11:44:13.737Z,49.20
2017-11-30T11:45:13.735Z,45.30
2017-11-30T11:46:13.692Z,42.90
2017-11-30T11:47:13.668Z,47.00
2017-11-30T11:48:13.668Z,38.90
2017-11-30T11:49:13.623Z,39.60
2017-11-30T11:50:13.631Z,37.00
2017-11-30T11:51:13.609Z,38.80
2017-11-30T11:52:13.670Z,43.60
2017-11-30T11:53:13.600Z,44.00
2017-11-30T11:54:13.519Z,35.80
2017-11-30T11:55:13.503Z,37.80
2017-11-30T11:56:13.481Z,44.40
2017-11-30T11:57:13.520Z,39.50
2017-11-30T11:58:13.486Z,35.10
2017-11-30T11:59:13.443Z,34.60
2017-11-30T12:00:13.405Z,34.00
2017-11-30T12:01:13.424Z,34.00
2017-11-30T12:02:13.354Z,33.50
2017-11-30T12:03:13.347Z,37.60
2017-11-30T12:04:13.309Z,34.70
2017-11-30T12:05:13.311Z,34.50
2017-11-30T12:06:13.275Z,35.00
2017-11-30T12:07:13.282Z,34.90
2017-11-30T12:08:13.253Z,32.90
2017-11-30T12:09:13.215Z,34.80
2017-11-30T12:10:13.195Z,33.40
2017-11-30T12:11:13.196Z,38.30
2017-11-30T12:12:13.166Z,41.20
2017-11-30T12:13:13.143Z,42.40
2017-11-30T12:14:13.146Z,34.40
2017-11-30T12:15:13.088Z,38.70
2017-11-30T12:16:13.070Z,35.20
2017-11-30T12:17:13.051Z,33.70
2017-11-30T12:18:13.037Z,37.80
2017-11-30T12:19:13.029Z,42.10
2017-11-30T12:20:12.998Z,34.40
2017-11-30T12:21:12.990Z,34.20
2017-11-30T12:22:13.042Z,37.60
2017-11-30T12:23:12.967Z,34.30
2017-11-30T12:24:12.911Z,31.30
2017-11-30T12:25:12.886Z,32.40
2017-11-30T12:26:12.883Z,32.00
2017-11-30T12:27:12.852Z,35.40
2017-11-30T12:28:12.831Z,39.70
2017-11-30T12:29:12.818Z,31.30
2017-11-30T12:30:12.825Z,35.60
2017-11-30T12:31:12.809Z,217.60
2017-11-30T12:32:12.752Z,30.50
2017-11-30T12:33:12.733Z,29.40
2017-11-30T12:34:12.756Z,34.40
2017-11-30T12:35:14.598Z,35.10
2017-11-30T12:36:12.756Z,48.00
2017-11-30T12:37:12.654Z,31.20
2017-11-30T12:38:12.634Z,31.30
2017-11-30T12:39:12.621Z,35.00
2017-11-30T12:40:12.593Z,30.60
2017-11-30T12:41:12.562Z,28.30